sensor_id;sensor_type;location;lat;lon;timestamp;pressure;altitude;pressure_sealevel;temperature
51693;BMP280;37777;53.066;21.638;2023-05-27T00:03:34;101427.09;;;9.68
51693;BMP280;37777;53.066;21.638;2023-05-27T00:10:37;101432.88;;;9.75
51693;BMP280;37777;53.066;21.638;2023-05-27T00:17:39;101436.16;;;9.63
51693;BMP280;37777;53.066;21.638;2023-05-27T00:24:42;101440.41;;;9.56
51693;BMP280;37777;53.066;21.638;2023-05-27T00:31:44;101431.16;;;9.25
51693;BMP280;37777;53.066;21.638;2023-05-27T00:38:46;101422.09;;;9.21
51693;BMP280;37777;53.066;21.638;2023-05-27T00:45:48;101417.13;;;9.14
51693;BMP280;37777;53.066;21.638;2023-05-27T00:52:51;101424.91;;;8.93
51693;BMP280;37777;53.066;21.638;2023-05-27T00:59:56;101416.31;;;8.91
51693;BMP280;37777;53.066;21.638;2023-05-27T01:14:10;101443.31;;;8.77
51693;BMP280;37777;53.066;21.638;2023-05-27T01:21:15;101464.16;;;8.63
51693;BMP280;37777;53.066;21.638;2023-05-27T01:28:20;101451.84;;;8.71
51693;BMP280;37777;53.066;21.638;2023-05-27T01:35:27;101458.63;;;8.68
51693;BMP280;37777;53.066;21.638;2023-05-27T01:42:31;101447.69;;;8.37
51693;BMP280;37777;53.066;21.638;2023-05-27T01:49:33;101458.25;;;8.47
51693;BMP280;37777;53.066;21.638;2023-05-27T01:56:36;101454.25;;;8.44
51693;BMP280;37777;53.066;21.638;2023-05-27T02:03:39;101445.28;;;8.35
51693;BMP280;37777;53.066;21.638;2023-05-27T02:10:41;101457.56;;;8.14
51693;BMP280;37777;53.066;21.638;2023-05-27T02:17:43;101475.97;;;8.53
51693;BMP280;37777;53.066;21.638;2023-05-27T02:24:48;101477.34;;;8.51
51693;BMP280;37777;53.066;21.638;2023-05-27T02:31:50;101490.16;;;8.31
51693;BMP280;37777;53.066;21.638;2023-05-27T02:38:52;101490.94;;;8.45
51693;BMP280;37777;53.066;21.638;2023-05-27T02:45:54;101507.81;;;8.65
51693;BMP280;37777;53.066;21.638;2023-05-27T02:52:57;101503.03;;;8.48
51693;BMP280;37777;53.066;21.638;2023-05-27T02:59:59;101515.31;;;8.68
51693;BMP280;37777;53.066;21.638;2023-05-27T03:07:01;101525.22;;;8.73
51693;BMP280;37777;53.066;21.638;2023-05-27T03:14:03;101517.06;;;9.01
51693;BMP280;37777;53.066;21.638;2023-05-27T03:21:05;101522.41;;;8.78
51693;BMP280;37777;53.066;21.638;2023-05-27T03:28:07;101517.97;;;8.96
51693;BMP280;37777;53.066;21.638;2023-05-27T03:35:10;101541.22;;;9.06
51693;BMP280;37777;53.066;21.638;2023-05-27T03:42:12;101552.03;;;9.06
51693;BMP280;37777;53.066;21.638;2023-05-27T03:49:14;101564.78;;;9.28
51693;BMP280;37777;53.066;21.638;2023-05-27T03:56:16;101569.50;;;9.59
51693;BMP280;37777;53.066;21.638;2023-05-27T04:03:18;101567.97;;;9.89
51693;BMP280;37777;53.066;21.638;2023-05-27T04:10:21;101566.97;;;10.16
51693;BMP280;37777;53.066;21.638;2023-05-27T04:17:23;101575.16;;;10.34
51693;BMP280;37777;53.066;21.638;2023-05-27T04:24:25;101582.13;;;10.57
51693;BMP280;37777;53.066;21.638;2023-05-27T04:31:27;101597.63;;;10.83
51693;BMP280;37777;53.066;21.638;2023-05-27T04:38:30;101595.63;;;11.15
51693;BMP280;37777;53.066;21.638;2023-05-27T04:45:32;101606.13;;;11.43
51693;BMP280;37777;53.066;21.638;2023-05-27T04:52:36;101607.56;;;11.58
51693;BMP280;37777;53.066;21.638;2023-05-27T04:59:43;101613.91;;;11.79
51693;BMP280;37777;53.066;21.638;2023-05-27T05:07:00;101618.31;;;12.01
51693;BMP280;37777;53.066;21.638;2023-05-27T05:14:02;101616.38;;;12.11
51693;BMP280;37777;53.066;21.638;2023-05-27T05:21:05;101624.78;;;12.35
51693;BMP280;37777;53.066;21.638;2023-05-27T05:28:07;101613.56;;;12.46
51693;BMP280;37777;53.066;21.638;2023-05-27T05:35:09;101629.09;;;12.66
51693;BMP280;37777;53.066;21.638;2023-05-27T05:42:11;101624.28;;;12.72
51693;BMP280;37777;53.066;21.638;2023-05-27T05:49:13;101621.34;;;12.86
51693;BMP280;37777;53.066;21.638;2023-05-27T05:56:15;101630.69;;;13.18
51693;BMP280;37777;53.066;21.638;2023-05-27T06:03:17;101633.72;;;13.16
51693;BMP280;37777;53.066;21.638;2023-05-27T06:10:19;101643.53;;;13.30
51693;BMP280;37777;53.066;21.638;2023-05-27T06:17:22;101649.31;;;13.62
51693;BMP280;37777;53.066;21.638;2023-05-27T06:24:24;101648.72;;;13.77
51693;BMP280;37777;53.066;21.638;2023-05-27T06:31:26;101665.81;;;13.78
51693;BMP280;37777;53.066;21.638;2023-05-27T06:38:28;101665.41;;;13.88
51693;BMP280;37777;53.066;21.638;2023-05-27T06:45:30;101661.91;;;14.00
51693;BMP280;37777;53.066;21.638;2023-05-27T06:52:33;101654.94;;;14.23
51693;BMP280;37777;53.066;21.638;2023-05-27T06:59:35;101654.56;;;14.37
51693;BMP280;37777;53.066;21.638;2023-05-27T07:06:37;101652.66;;;14.50
51693;BMP280;37777;53.066;21.638;2023-05-27T07:13:39;101646.31;;;14.71
51693;BMP280;37777;53.066;21.638;2023-05-27T07:20:41;101646.69;;;14.85
51693;BMP280;37777;53.066;21.638;2023-05-27T07:27:44;101656.38;;;15.23
51693;BMP280;37777;53.066;21.638;2023-05-27T07:34:46;101640.44;;;15.37
51693;BMP280;37777;53.066;21.638;2023-05-27T07:41:48;101641.81;;;15.31
51693;BMP280;37777;53.066;21.638;2023-05-27T07:48:50;101643.47;;;15.48
51693;BMP280;37777;53.066;21.638;2023-05-27T07:55:52;101642.50;;;15.72
51693;BMP280;37777;53.066;21.638;2023-05-27T08:02:54;101636.69;;;15.74
51693;BMP280;37777;53.066;21.638;2023-05-27T08:09:56;101648.97;;;15.96
51693;BMP280;37777;53.066;21.638;2023-05-27T08:16:58;101640.50;;;16.01
51693;BMP280;37777;53.066;21.638;2023-05-27T08:24:00;101633.34;;;15.65
51693;BMP280;37777;53.066;21.638;2023-05-27T08:31:04;101632.78;;;15.71
51693;BMP280;37777;53.066;21.638;2023-05-27T08:38:06;101648.88;;;15.92
51693;BMP280;37777;53.066;21.638;2023-05-27T08:45:10;101628.19;;;15.75
51693;BMP280;37777;53.066;21.638;2023-05-27T08:52:18;101625.91;;;16.09
51693;BMP280;37777;53.066;21.638;2023-05-27T08:59:21;101634.16;;;16.29
51693;BMP280;37777;53.066;21.638;2023-05-27T09:06:23;101635.03;;;16.01
51693;BMP280;37777;53.066;21.638;2023-05-27T09:13:30;101656.72;;;16.26
51693;BMP280;37777;53.066;21.638;2023-05-27T09:20:32;101639.44;;;16.22
51693;BMP280;37777;53.066;21.638;2023-05-27T09:27:34;101626.97;;;16.40
51693;BMP280;37777;53.066;21.638;2023-05-27T09:34:40;101639.97;;;16.27
51693;BMP280;37777;53.066;21.638;2023-05-27T09:41:42;101625.03;;;16.76
51693;BMP280;37777;53.066;21.638;2023-05-27T09:48:44;101628.63;;;17.00
51693;BMP280;37777;53.066;21.638;2023-05-27T09:55:47;101613.03;;;17.43
51693;BMP280;37777;53.066;21.638;2023-05-27T10:02:50;101617.75;;;17.23
51693;BMP280;37777;53.066;21.638;2023-05-27T10:09:53;101628.97;;;17.18
51693;BMP280;37777;53.066;21.638;2023-05-27T10:16:56;101630.78;;;16.35
51693;BMP280;37777;53.066;21.638;2023-05-27T10:24:00;101625.69;;;17.08
51693;BMP280;37777;53.066;21.638;2023-05-27T10:38:18;101616.53;;;17.63
51693;BMP280;37777;53.066;21.638;2023-05-27T10:45:31;101614.03;;;17.11
51693;BMP280;37777;53.066;21.638;2023-05-27T10:52:37;101625.94;;;17.23
51693;BMP280;37777;53.066;21.638;2023-05-27T10:59:48;101607.00;;;17.34
51693;BMP280;37777;53.066;21.638;2023-05-27T11:06:58;101624.84;;;17.04
51693;BMP280;37777;53.066;21.638;2023-05-27T11:14:04;101616.34;;;17.32
51693;BMP280;37777;53.066;21.638;2023-05-27T11:21:08;101609.03;;;17.37
51693;BMP280;37777;53.066;21.638;2023-05-27T11:28:14;101635.69;;;17.63
51693;BMP280;37777;53.066;21.638;2023-05-27T11:35:18;101607.06;;;17.60
51693;BMP280;37777;53.066;21.638;2023-05-27T11:42:24;101597.81;;;18.18
51693;BMP280;37777;53.066;21.638;2023-05-27T11:49:27;101602.44;;;18.14
51693;BMP280;37777;53.066;21.638;2023-05-27T11:56:30;101592.19;;;18.07
51693;BMP280;37777;53.066;21.638;2023-05-27T12:03:35;101577.59;;;18.26
51693;BMP280;37777;53.066;21.638;2023-05-27T12:10:37;101595.94;;;17.96
51693;BMP280;37777;53.066;21.638;2023-05-27T12:17:39;101579.75;;;18.14
51693;BMP280;37777;53.066;21.638;2023-05-27T12:24:41;101580.31;;;18.00
51693;BMP280;37777;53.066;21.638;2023-05-27T12:31:43;101572.91;;;18.27
51693;BMP280;37777;53.066;21.638;2023-05-27T12:38:46;101575.44;;;18.43
51693;BMP280;37777;53.066;21.638;2023-05-27T12:45:48;101561.69;;;18.09
51693;BMP280;37777;53.066;21.638;2023-05-27T12:52:51;101553.91;;;18.11
51693;BMP280;37777;53.066;21.638;2023-05-27T12:59:54;101544.63;;;18.23
51693;BMP280;37777;53.066;21.638;2023-05-27T13:06:56;101560.38;;;18.26
51693;BMP280;37777;53.066;21.638;2023-05-27T13:13:58;101548.38;;;18.07
51693;BMP280;37777;53.066;21.638;2023-05-27T13:21:00;101553.09;;;17.84
51693;BMP280;37777;53.066;21.638;2023-05-27T13:28:03;101544.25;;;18.21
51693;BMP280;37777;53.066;21.638;2023-05-27T13:35:05;101532.75;;;18.42
51693;BMP280;37777;53.066;21.638;2023-05-27T13:42:07;101537.19;;;17.93
51693;BMP280;37777;53.066;21.638;2023-05-27T13:49:09;101521.75;;;18.38
51693;BMP280;37777;53.066;21.638;2023-05-27T13:56:11;101520.13;;;18.64
51693;BMP280;37777;53.066;21.638;2023-05-27T14:03:13;101507.06;;;18.54
51693;BMP280;37777;53.066;21.638;2023-05-27T14:10:15;101517.00;;;18.65
51693;BMP280;37777;53.066;21.638;2023-05-27T14:17:17;101497.72;;;18.24
51693;BMP280;37777;53.066;21.638;2023-05-27T14:24:19;101488.50;;;18.36
51693;BMP280;37777;53.066;21.638;2023-05-27T14:31:22;101500.91;;;18.30
51693;BMP280;37777;53.066;21.638;2023-05-27T14:38:24;101486.25;;;18.45
51693;BMP280;37777;53.066;21.638;2023-05-27T14:45:26;101474.81;;;18.40
51693;BMP280;37777;53.066;21.638;2023-05-27T14:52:28;101478.03;;;18.45
51693;BMP280;37777;53.066;21.638;2023-05-27T14:59:30;101465.81;;;18.39
51693;BMP280;37777;53.066;21.638;2023-05-27T15:06:32;101479.91;;;18.41
51693;BMP280;37777;53.066;21.638;2023-05-27T15:13:34;101460.31;;;18.39
51693;BMP280;37777;53.066;21.638;2023-05-27T15:20:36;101461.09;;;18.36
51693;BMP280;37777;53.066;21.638;2023-05-27T15:27:39;101462.63;;;18.37
51693;BMP280;37777;53.066;21.638;2023-05-27T15:34:43;101473.34;;;18.16
51693;BMP280;37777;53.066;21.638;2023-05-27T15:41:45;101453.28;;;18.42
51693;BMP280;37777;53.066;21.638;2023-05-27T15:48:47;101455.50;;;18.29
51693;BMP280;37777;53.066;21.638;2023-05-27T15:55:50;101454.66;;;17.91
51693;BMP280;37777;53.066;21.638;2023-05-27T16:02:52;101446.63;;;18.05
51693;BMP280;37777;53.066;21.638;2023-05-27T16:09:54;101444.31;;;18.07
51693;BMP280;37777;53.066;21.638;2023-05-27T16:16:56;101443.47;;;18.78
51693;BMP280;37777;53.066;21.638;2023-05-27T16:23:59;101445.59;;;18.99
51693;BMP280;37777;53.066;21.638;2023-05-27T16:31:08;101435.88;;;19.05
51693;BMP280;37777;53.066;21.638;2023-05-27T16:38:10;101430.56;;;18.79
51693;BMP280;37777;53.066;21.638;2023-05-27T16:45:13;101420.38;;;18.79
51693;BMP280;37777;53.066;21.638;2023-05-27T16:52:15;101417.78;;;18.94
51693;BMP280;37777;53.066;21.638;2023-05-27T16:59:17;101422.00;;;18.88
51693;BMP280;37777;53.066;21.638;2023-05-27T17:06:19;101419.16;;;18.73
51693;BMP280;37777;53.066;21.638;2023-05-27T17:13:21;101411.16;;;19.02
51693;BMP280;37777;53.066;21.638;2023-05-27T17:20:23;101414.66;;;18.99
51693;BMP280;37777;53.066;21.638;2023-05-27T17:27:26;101409.09;;;18.43
51693;BMP280;37777;53.066;21.638;2023-05-27T17:34:28;101404.59;;;18.28
51693;BMP280;37777;53.066;21.638;2023-05-27T17:41:31;101405.28;;;18.18
51693;BMP280;37777;53.066;21.638;2023-05-27T17:48:33;101394.09;;;17.96
51693;BMP280;37777;53.066;21.638;2023-05-27T17:55:35;101394.59;;;17.72
51693;BMP280;37777;53.066;21.638;2023-05-27T18:02:37;101410.69;;;17.50
51693;BMP280;37777;53.066;21.638;2023-05-27T18:09:39;101401.78;;;17.26
51693;BMP280;37777;53.066;21.638;2023-05-27T18:16:41;101404.13;;;17.01
51693;BMP280;37777;53.066;21.638;2023-05-27T18:23:43;101415.31;;;16.73
51693;BMP280;37777;53.066;21.638;2023-05-27T18:30:45;101411.19;;;16.40
51693;BMP280;37777;53.066;21.638;2023-05-27T18:37:48;101418.25;;;16.22
51693;BMP280;37777;53.066;21.638;2023-05-27T18:44:50;101418.47;;;16.13
51693;BMP280;37777;53.066;21.638;2023-05-27T18:51:52;101432.94;;;15.78
51693;BMP280;37777;53.066;21.638;2023-05-27T18:58:55;101441.00;;;15.39
51693;BMP280;37777;53.066;21.638;2023-05-27T19:05:57;101446.47;;;15.07
51693;BMP280;37777;53.066;21.638;2023-05-27T19:12:59;101436.75;;;14.78
51693;BMP280;37777;53.066;21.638;2023-05-27T19:20:05;101442.50;;;14.60
51693;BMP280;37777;53.066;21.638;2023-05-27T19:27:09;101450.44;;;14.53
51693;BMP280;37777;53.066;21.638;2023-05-27T19:34:11;101455.56;;;14.14
51693;BMP280;37777;53.066;21.638;2023-05-27T19:41:13;101459.88;;;13.90
51693;BMP280;37777;53.066;21.638;2023-05-27T19:48:16;101448.78;;;13.71
51693;BMP280;37777;53.066;21.638;2023-05-27T19:55:18;101451.75;;;13.78
51693;BMP280;37777;53.066;21.638;2023-05-27T20:02:20;101456.94;;;13.59
51693;BMP280;37777;53.066;21.638;2023-05-27T20:09:23;101456.19;;;13.25
51693;BMP280;37777;53.066;21.638;2023-05-27T20:16:25;101455.47;;;13.15
51693;BMP280;37777;53.066;21.638;2023-05-27T20:23:27;101456.56;;;13.02
51693;BMP280;37777;53.066;21.638;2023-05-27T20:30:29;101460.13;;;12.81
51693;BMP280;37777;53.066;21.638;2023-05-27T20:37:31;101463.06;;;12.76
51693;BMP280;37777;53.066;21.638;2023-05-27T20:44:34;101466.16;;;12.66
51693;BMP280;37777;53.066;21.638;2023-05-27T20:51:36;101458.69;;;12.42
51693;BMP280;37777;53.066;21.638;2023-05-27T20:58:38;101459.09;;;12.02
51693;BMP280;37777;53.066;21.638;2023-05-27T21:05:40;101460.81;;;12.06
51693;BMP280;37777;53.066;21.638;2023-05-27T21:12:42;101468.97;;;12.06
51693;BMP280;37777;53.066;21.638;2023-05-27T21:19:44;101465.75;;;11.75
51693;BMP280;37777;53.066;21.638;2023-05-27T21:26:47;101470.44;;;11.48
51693;BMP280;37777;53.066;21.638;2023-05-27T21:33:50;101472.72;;;11.46
51693;BMP280;37777;53.066;21.638;2023-05-27T21:40:52;101477.97;;;11.33
51693;BMP280;37777;53.066;21.638;2023-05-27T21:47:54;101483.41;;;11.16
51693;BMP280;37777;53.066;21.638;2023-05-27T21:54:56;101481.69;;;11.03
51693;BMP280;37777;53.066;21.638;2023-05-27T22:01:59;101477.84;;;11.12
51693;BMP280;37777;53.066;21.638;2023-05-27T22:09:01;101472.44;;;10.95
51693;BMP280;37777;53.066;21.638;2023-05-27T22:16:03;101471.94;;;11.02
51693;BMP280;37777;53.066;21.638;2023-05-27T22:23:05;101471.50;;;10.73
51693;BMP280;37777;53.066;21.638;2023-05-27T22:30:07;101464.28;;;10.51
51693;BMP280;37777;53.066;21.638;2023-05-27T22:37:10;101472.38;;;10.34
51693;BMP280;37777;53.066;21.638;2023-05-27T22:44:12;101463.09;;;10.17
51693;BMP280;37777;53.066;21.638;2023-05-27T22:51:16;101467.88;;;10.20
51693;BMP280;37777;53.066;21.638;2023-05-27T22:58:18;101454.94;;;10.08
51693;BMP280;37777;53.066;21.638;2023-05-27T23:05:20;101453.34;;;10.07
51693;BMP280;37777;53.066;21.638;2023-05-27T23:12:23;101454.88;;;9.91
51693;BMP280;37777;53.066;21.638;2023-05-27T23:19:25;101438.50;;;9.87
51693;BMP280;37777;53.066;21.638;2023-05-27T23:26:28;101448.84;;;9.85
51693;BMP280;37777;53.066;21.638;2023-05-27T23:33:30;101443.06;;;9.69
51693;BMP280;37777;53.066;21.638;2023-05-27T23:40:32;101442.00;;;9.57
51693;BMP280;37777;53.066;21.638;2023-05-27T23:47:34;101443.31;;;9.37
51693;BMP280;37777;53.066;21.638;2023-05-27T23:54:36;101442.50;;;9.36
